sensor_id;sensor_type;location;lat;lon;timestamp;P1;durP1;ratioP1;P2;durP2;ratioP2
3523;SDS011;1776;53.330;11.498;2022-08-30T00:00:48;4.63;;;3.23;;
3523;SDS011;1776;53.330;11.498;2022-08-30T00:03:28;4.00;;;3.13;;
3523;SDS011;1776;53.330;11.498;2022-08-30T00:05:54;4.40;;;3.23;;
3523;SDS011;1776;53.330;11.498;2022-08-30T00:08:20;4.53;;;3.40;;
3523;SDS011;1776;53.330;11.498;2022-08-30T00:10:46;8.97;;;4.57;;
3523;SDS011;1776;53.330;11.498;2022-08-30T00:13:12;6.30;;;4.27;;
3523;SDS011;1776;53.330;11.498;2022-08-30T00:15:39;10.40;;;4.90;;
3523;SDS011;1776;53.330;11.498;2022-08-30T00:18:06;4.30;;;3.90;;
3523;SDS011;1776;53.330;11.498;2022-08-30T00:20:32;5.87;;;3.57;;
3523;SDS011;1776;53.330;11.498;2022-08-30T00:22:59;3.43;;;3.13;;
3523;SDS011;1776;53.330;11.498;2022-08-30T00:25:25;3.63;;;2.90;;
3523;SDS011;1776;53.330;11.498;2022-08-30T00:27:50;4.63;;;3.17;;
3523;SDS011;1776;53.330;11.498;2022-08-30T00:30:16;4.20;;;3.20;;
3523;SDS011;1776;53.330;11.498;2022-08-30T00:32:43;3.77;;;3.00;;
3523;SDS011;1776;53.330;11.498;2022-08-30T00:35:09;3.37;;;2.30;;
3523;SDS011;1776;53.330;11.498;2022-08-30T00:37:37;2.60;;;2.40;;
3523;SDS011;1776;53.330;11.498;2022-08-30T00:40:02;3.23;;;3.00;;
3523;SDS011;1776;53.330;11.498;2022-08-30T00:42:30;2.63;;;2.43;;
3523;SDS011;1776;53.330;11.498;2022-08-30T00:44:56;3.27;;;2.67;;
3523;SDS011;1776;53.330;11.498;2022-08-30T00:47:22;3.47;;;2.90;;
3523;SDS011;1776;53.330;11.498;2022-08-30T00:49:48;2.60;;;2.40;;
3523;SDS011;1776;53.330;11.498;2022-08-30T00:52:18;3.43;;;2.50;;
3523;SDS011;1776;53.330;11.498;2022-08-30T00:54:46;2.50;;;2.20;;
3523;SDS011;1776;53.330;11.498;2022-08-30T00:57:14;3.07;;;2.77;;
3523;SDS011;1776;53.330;11.498;2022-08-30T00:59:40;2.77;;;2.57;;
3523;SDS011;1776;53.330;11.498;2022-08-30T01:02:08;5.23;;;2.47;;
3523;SDS011;1776;53.330;11.498;2022-08-30T01:04:34;2.47;;;2.27;;
3523;SDS011;1776;53.330;11.498;2022-08-30T01:07:01;5.17;;;2.90;;
3523;SDS011;1776;53.330;11.498;2022-08-30T01:09:27;2.23;;;2.03;;
3523;SDS011;1776;53.330;11.498;2022-08-30T01:11:53;2.73;;;2.40;;
3523;SDS011;1776;53.330;11.498;2022-08-30T01:14:19;3.00;;;2.43;;
3523;SDS011;1776;53.330;11.498;2022-08-30T01:16:48;2.67;;;2.47;;
3523;SDS011;1776;53.330;11.498;2022-08-30T01:19:38;2.97;;;2.10;;
3523;SDS011;1776;53.330;11.498;2022-08-30T01:22:18;2.80;;;2.60;;
3523;SDS011;1776;53.330;11.498;2022-08-30T01:24:51;3.10;;;2.80;;
3523;SDS011;1776;53.330;11.498;2022-08-30T01:27:18;3.10;;;2.80;;
3523;SDS011;1776;53.330;11.498;2022-08-30T01:29:46;2.97;;;2.77;;
3523;SDS011;1776;53.330;11.498;2022-08-30T01:32:18;3.80;;;2.70;;
3523;SDS011;1776;53.330;11.498;2022-08-30T01:34:46;2.70;;;2.50;;
3523;SDS011;1776;53.330;11.498;2022-08-30T01:37:35;6.10;;;2.87;;
3523;SDS011;1776;53.330;11.498;2022-08-30T01:40:00;3.33;;;3.03;;
3523;SDS011;1776;53.330;11.498;2022-08-30T01:42:26;7.80;;;2.80;;
3523;SDS011;1776;53.330;11.498;2022-08-30T01:44:52;3.10;;;2.80;;
3523;SDS011;1776;53.330;11.498;2022-08-30T01:47:18;3.90;;;2.80;;
3523;SDS011;1776;53.330;11.498;2022-08-30T01:49:44;3.37;;;2.37;;
3523;SDS011;1776;53.330;11.498;2022-08-30T01:52:10;3.10;;;2.30;;
3523;SDS011;1776;53.330;11.498;2022-08-30T01:54:37;5.70;;;2.77;;
3523;SDS011;1776;53.330;11.498;2022-08-30T01:57:05;2.50;;;2.30;;
3523;SDS011;1776;53.330;11.498;2022-08-30T01:59:34;3.60;;;2.90;;
3523;SDS011;1776;53.330;11.498;2022-08-30T02:02:00;2.43;;;2.10;;
3523;SDS011;1776;53.330;11.498;2022-08-30T02:04:26;4.97;;;2.77;;
3523;SDS011;1776;53.330;11.498;2022-08-30T02:06:51;3.20;;;2.40;;
3523;SDS011;1776;53.330;11.498;2022-08-30T02:09:17;2.77;;;2.40;;
3523;SDS011;1776;53.330;11.498;2022-08-30T02:11:42;2.93;;;2.63;;
3523;SDS011;1776;53.330;11.498;2022-08-30T02:14:08;3.97;;;2.50;;
3523;SDS011;1776;53.330;11.498;2022-08-30T02:16:34;6.47;;;3.00;;
3523;SDS011;1776;53.330;11.498;2022-08-30T02:18:59;3.43;;;2.30;;
3523;SDS011;1776;53.330;11.498;2022-08-30T02:21:24;2.73;;;2.33;;
3523;SDS011;1776;53.330;11.498;2022-08-30T02:23:51;3.70;;;2.70;;
3523;SDS011;1776;53.330;11.498;2022-08-30T02:26:17;3.00;;;2.33;;
3523;SDS011;1776;53.330;11.498;2022-08-30T02:28:43;4.20;;;2.50;;
3523;SDS011;1776;53.330;11.498;2022-08-30T02:31:09;2.93;;;2.63;;
3523;SDS011;1776;53.330;11.498;2022-08-30T02:33:35;2.90;;;2.70;;
3523;SDS011;1776;53.330;11.498;2022-08-30T02:36:02;2.90;;;2.70;;
3523;SDS011;1776;53.330;11.498;2022-08-30T02:38:28;3.17;;;2.90;;
3523;SDS011;1776;53.330;11.498;2022-08-30T02:40:53;3.43;;;3.00;;
3523;SDS011;1776;53.330;11.498;2022-08-30T02:43:19;3.00;;;2.70;;
3523;SDS011;1776;53.330;11.498;2022-08-30T02:45:44;3.13;;;2.70;;
3523;SDS011;1776;53.330;11.498;2022-08-30T02:48:09;5.03;;;3.60;;
3523;SDS011;1776;53.330;11.498;2022-08-30T02:50:38;3.10;;;2.47;;
3523;SDS011;1776;53.330;11.498;2022-08-30T02:53:05;3.30;;;2.97;;
3523;SDS011;1776;53.330;11.498;2022-08-30T02:55:30;4.20;;;3.43;;
3523;SDS011;1776;53.330;11.498;2022-08-30T02:57:55;3.10;;;2.77;;
3523;SDS011;1776;53.330;11.498;2022-08-30T03:00:21;3.03;;;2.73;;
3523;SDS011;1776;53.330;11.498;2022-08-30T03:02:46;3.43;;;3.23;;
3523;SDS011;1776;53.330;11.498;2022-08-30T03:05:12;3.90;;;3.60;;
3523;SDS011;1776;53.330;11.498;2022-08-30T03:07:39;3.80;;;3.03;;
3523;SDS011;1776;53.330;11.498;2022-08-30T03:10:06;3.70;;;3.40;;
3523;SDS011;1776;53.330;11.498;2022-08-30T03:12:32;4.00;;;3.60;;
3523;SDS011;1776;53.330;11.498;2022-08-30T03:14:57;3.10;;;2.80;;
3523;SDS011;1776;53.330;11.498;2022-08-30T03:17:23;4.43;;;3.17;;
3523;SDS011;1776;53.330;11.498;2022-08-30T03:19:49;4.33;;;3.47;;
3523;SDS011;1776;53.330;11.498;2022-08-30T03:22:15;4.33;;;3.10;;
3523;SDS011;1776;53.330;11.498;2022-08-30T03:24:41;4.57;;;3.00;;
3523;SDS011;1776;53.330;11.498;2022-08-30T03:27:06;3.87;;;3.57;;
3523;SDS011;1776;53.330;11.498;2022-08-30T03:29:32;3.90;;;3.57;;
3523;SDS011;1776;53.330;11.498;2022-08-30T03:31:57;3.73;;;3.43;;
3523;SDS011;1776;53.330;11.498;2022-08-30T03:34:23;3.93;;;3.53;;
3523;SDS011;1776;53.330;11.498;2022-08-30T03:36:50;7.67;;;3.20;;
3523;SDS011;1776;53.330;11.498;2022-08-30T03:39:18;3.50;;;3.20;;
3523;SDS011;1776;53.330;11.498;2022-08-30T03:41:44;4.60;;;3.40;;
3523;SDS011;1776;53.330;11.498;2022-08-30T03:44:09;4.33;;;3.80;;
3523;SDS011;1776;53.330;11.498;2022-08-30T03:46:35;4.47;;;3.43;;
3523;SDS011;1776;53.330;11.498;2022-08-30T03:49:00;4.07;;;3.77;;
3523;SDS011;1776;53.330;11.498;2022-08-30T03:51:25;4.37;;;3.97;;
3523;SDS011;1776;53.330;11.498;2022-08-30T03:53:51;4.37;;;3.60;;
3523;SDS011;1776;53.330;11.498;2022-08-30T03:56:16;4.30;;;3.47;;
3523;SDS011;1776;53.330;11.498;2022-08-30T03:58:42;3.77;;;3.47;;
3523;SDS011;1776;53.330;11.498;2022-08-30T04:01:08;3.77;;;3.37;;
3523;SDS011;1776;53.330;11.498;2022-08-30T04:03:33;3.97;;;3.67;;
3523;SDS011;1776;53.330;11.498;2022-08-30T04:05:59;5.40;;;4.23;;
3523;SDS011;1776;53.330;11.498;2022-08-30T04:08:25;4.17;;;3.83;;
3523;SDS011;1776;53.330;11.498;2022-08-30T04:10:51;4.17;;;3.87;;
3523;SDS011;1776;53.330;11.498;2022-08-30T04:13:18;3.97;;;3.67;;
3523;SDS011;1776;53.330;11.498;2022-08-30T04:15:44;4.33;;;3.93;;
3523;SDS011;1776;53.330;11.498;2022-08-30T04:18:10;6.10;;;3.57;;
3523;SDS011;1776;53.330;11.498;2022-08-30T04:20:35;4.87;;;4.07;;
3523;SDS011;1776;53.330;11.498;2022-08-30T04:23:01;4.80;;;3.83;;
3523;SDS011;1776;53.330;11.498;2022-08-30T04:25:27;5.50;;;3.50;;
3523;SDS011;1776;53.330;11.498;2022-08-30T04:27:53;5.00;;;3.80;;
3523;SDS011;1776;53.330;11.498;2022-08-30T04:30:18;4.20;;;3.80;;
3523;SDS011;1776;53.330;11.498;2022-08-30T04:32:43;4.20;;;3.23;;
3523;SDS011;1776;53.330;11.498;2022-08-30T04:35:09;6.13;;;3.70;;
3523;SDS011;1776;53.330;11.498;2022-08-30T04:37:36;5.87;;;3.47;;
3523;SDS011;1776;53.330;11.498;2022-08-30T04:40:02;12.53;;;3.37;;
3523;SDS011;1776;53.330;11.498;2022-08-30T04:42:29;3.60;;;3.30;;
3523;SDS011;1776;53.330;11.498;2022-08-30T04:44:57;3.57;;;3.27;;
3523;SDS011;1776;53.330;11.498;2022-08-30T04:47:25;3.53;;;3.23;;
3523;SDS011;1776;53.330;11.498;2022-08-30T04:49:51;4.17;;;3.70;;
3523;SDS011;1776;53.330;11.498;2022-08-30T04:52:17;3.27;;;2.97;;
3523;SDS011;1776;53.330;11.498;2022-08-30T04:54:43;3.47;;;2.90;;
3523;SDS011;1776;53.330;11.498;2022-08-30T04:57:08;3.50;;;3.07;;
3523;SDS011;1776;53.330;11.498;2022-08-30T04:59:34;3.60;;;2.77;;
3523;SDS011;1776;53.330;11.498;2022-08-30T05:01:59;3.57;;;3.27;;
3523;SDS011;1776;53.330;11.498;2022-08-30T05:04:24;3.53;;;3.23;;
3523;SDS011;1776;53.330;11.498;2022-08-30T05:06:50;5.00;;;3.37;;
3523;SDS011;1776;53.330;11.498;2022-08-30T05:09:15;3.50;;;3.20;;
3523;SDS011;1776;53.330;11.498;2022-08-30T05:11:40;3.53;;;3.20;;
3523;SDS011;1776;53.330;11.498;2022-08-30T05:14:07;4.60;;;3.60;;
3523;SDS011;1776;53.330;11.498;2022-08-30T05:16:33;6.13;;;3.83;;
3523;SDS011;1776;53.330;11.498;2022-08-30T05:18:59;3.43;;;3.13;;
3523;SDS011;1776;53.330;11.498;2022-08-30T05:21:25;3.97;;;3.60;;
3523;SDS011;1776;53.330;11.498;2022-08-30T05:23:52;4.13;;;3.37;;
3523;SDS011;1776;53.330;11.498;2022-08-30T05:26:24;4.83;;;3.63;;
3523;SDS011;1776;53.330;11.498;2022-08-30T05:28:52;3.90;;;3.00;;
3523;SDS011;1776;53.330;11.498;2022-08-30T05:31:19;3.30;;;3.00;;
3523;SDS011;1776;53.330;11.498;2022-08-30T05:33:49;2.70;;;2.40;;
3523;SDS011;1776;53.330;11.498;2022-08-30T05:36:17;3.40;;;2.70;;
3523;SDS011;1776;53.330;11.498;2022-08-30T05:38:44;5.63;;;3.03;;
3523;SDS011;1776;53.330;11.498;2022-08-30T05:41:09;3.43;;;3.13;;
3523;SDS011;1776;53.330;11.498;2022-08-30T05:43:35;3.10;;;2.90;;
3523;SDS011;1776;53.330;11.498;2022-08-30T05:46:05;2.90;;;2.60;;
3523;SDS011;1776;53.330;11.498;2022-08-30T05:48:32;3.77;;;3.47;;
3523;SDS011;1776;53.330;11.498;2022-08-30T05:51:05;3.43;;;3.13;;
3523;SDS011;1776;53.330;11.498;2022-08-30T05:53:33;3.43;;;2.83;;
3523;SDS011;1776;53.330;11.498;2022-08-30T05:56:00;6.00;;;3.20;;
3523;SDS011;1776;53.330;11.498;2022-08-30T05:58:26;2.60;;;2.40;;
3523;SDS011;1776;53.330;11.498;2022-08-30T06:00:52;4.20;;;2.53;;
3523;SDS011;1776;53.330;11.498;2022-08-30T06:03:17;3.43;;;2.10;;
3523;SDS011;1776;53.330;11.498;2022-08-30T06:05:43;8.80;;;3.00;;
3523;SDS011;1776;53.330;11.498;2022-08-30T06:08:08;3.00;;;2.70;;
3523;SDS011;1776;53.330;11.498;2022-08-30T06:10:33;4.80;;;2.70;;
3523;SDS011;1776;53.330;11.498;2022-08-30T06:12:58;2.53;;;2.30;;
3523;SDS011;1776;53.330;11.498;2022-08-30T06:15:24;3.17;;;2.80;;
3523;SDS011;1776;53.330;11.498;2022-08-30T06:17:49;4.13;;;3.17;;
3523;SDS011;1776;53.330;11.498;2022-08-30T06:20:14;4.73;;;2.80;;
3523;SDS011;1776;53.330;11.498;2022-08-30T06:22:42;5.40;;;2.90;;
3523;SDS011;1776;53.330;11.498;2022-08-30T06:25:08;2.90;;;2.30;;
3523;SDS011;1776;53.330;11.498;2022-08-30T06:27:34;3.63;;;3.03;;
3523;SDS011;1776;53.330;11.498;2022-08-30T06:29:59;5.33;;;3.03;;
3523;SDS011;1776;53.330;11.498;2022-08-30T06:32:24;3.20;;;2.43;;
3523;SDS011;1776;53.330;11.498;2022-08-30T06:34:49;3.60;;;2.80;;
3523;SDS011;1776;53.330;11.498;2022-08-30T06:37:15;2.67;;;2.10;;
3523;SDS011;1776;53.330;11.498;2022-08-30T06:39:40;2.90;;;2.23;;
3523;SDS011;1776;53.330;11.498;2022-08-30T06:42:06;3.80;;;2.30;;
3523;SDS011;1776;53.330;11.498;2022-08-30T06:44:31;2.57;;;2.37;;
3523;SDS011;1776;53.330;11.498;2022-08-30T06:46:56;2.80;;;2.23;;
3523;SDS011;1776;53.330;11.498;2022-08-30T06:49:22;1.90;;;1.73;;
3523;SDS011;1776;53.330;11.498;2022-08-30T06:51:47;2.37;;;2.17;;
3523;SDS011;1776;53.330;11.498;2022-08-30T06:54:13;2.20;;;1.90;;
3523;SDS011;1776;53.330;11.498;2022-08-30T06:56:39;2.20;;;2.00;;
3523;SDS011;1776;53.330;11.498;2022-08-30T06:59:05;2.77;;;1.77;;
3523;SDS011;1776;53.330;11.498;2022-08-30T07:01:30;2.77;;;1.77;;
3523;SDS011;1776;53.330;11.498;2022-08-30T07:03:56;3.77;;;1.77;;
3523;SDS011;1776;53.330;11.498;2022-08-30T07:06:23;5.40;;;1.83;;
3523;SDS011;1776;53.330;11.498;2022-08-30T07:08:49;4.70;;;1.80;;
3523;SDS011;1776;53.330;11.498;2022-08-30T07:11:23;2.60;;;1.80;;
3523;SDS011;1776;53.330;11.498;2022-08-30T07:13:52;1.43;;;1.33;;
3523;SDS011;1776;53.330;11.498;2022-08-30T07:16:18;1.67;;;1.57;;
3523;SDS011;1776;53.330;11.498;2022-08-30T07:18:43;2.10;;;1.67;;
3523;SDS011;1776;53.330;11.498;2022-08-30T07:21:15;3.13;;;1.60;;
3523;SDS011;1776;53.330;11.498;2022-08-30T07:23:43;1.43;;;1.33;;
3523;SDS011;1776;53.330;11.498;2022-08-30T07:26:14;4.20;;;2.63;;
3523;SDS011;1776;53.330;11.498;2022-08-30T07:28:42;3.30;;;3.00;;
3523;SDS011;1776;53.330;11.498;2022-08-30T07:31:09;3.10;;;2.27;;
3523;SDS011;1776;53.330;11.498;2022-08-30T07:33:35;5.70;;;1.70;;
3523;SDS011;1776;53.330;11.498;2022-08-30T07:36:01;2.73;;;1.97;;
3523;SDS011;1776;53.330;11.498;2022-08-30T07:38:29;4.10;;;1.90;;
3523;SDS011;1776;53.330;11.498;2022-08-30T07:40:55;3.03;;;1.87;;
3523;SDS011;1776;53.330;11.498;2022-08-30T07:43:23;3.47;;;2.07;;
3523;SDS011;1776;53.330;11.498;2022-08-30T07:45:48;1.83;;;1.67;;
3523;SDS011;1776;53.330;11.498;2022-08-30T07:48:14;3.07;;;1.67;;
3523;SDS011;1776;53.330;11.498;2022-08-30T07:50:43;3.80;;;1.50;;
3523;SDS011;1776;53.330;11.498;2022-08-30T07:53:09;7.67;;;1.63;;
3523;SDS011;1776;53.330;11.498;2022-08-30T07:55:36;1.77;;;1.40;;
3523;SDS011;1776;53.330;11.498;2022-08-30T07:58:01;4.83;;;1.17;;
3523;SDS011;1776;53.330;11.498;2022-08-30T08:00:26;3.27;;;1.53;;
3523;SDS011;1776;53.330;11.498;2022-08-30T08:02:52;3.17;;;0.90;;
3523;SDS011;1776;53.330;11.498;2022-08-30T08:05:17;1.53;;;1.17;;
3523;SDS011;1776;53.330;11.498;2022-08-30T08:07:42;1.50;;;1.10;;
3523;SDS011;1776;53.330;11.498;2022-08-30T08:10:08;4.40;;;1.37;;
3523;SDS011;1776;53.330;11.498;2022-08-30T08:12:34;1.50;;;1.10;;
3523;SDS011;1776;53.330;11.498;2022-08-30T08:15:00;2.37;;;1.53;;
3523;SDS011;1776;53.330;11.498;2022-08-30T08:17:26;1.83;;;1.17;;
3523;SDS011;1776;53.330;11.498;2022-08-30T08:19:51;1.33;;;1.00;;
3523;SDS011;1776;53.330;11.498;2022-08-30T08:22:17;4.80;;;1.30;;
3523;SDS011;1776;53.330;11.498;2022-08-30T08:24:42;1.20;;;1.10;;
3523;SDS011;1776;53.330;11.498;2022-08-30T08:27:07;3.50;;;0.83;;
3523;SDS011;1776;53.330;11.498;2022-08-30T08:29:33;1.90;;;1.60;;
3523;SDS011;1776;53.330;11.498;2022-08-30T08:31:58;2.87;;;1.07;;
3523;SDS011;1776;53.330;11.498;2022-08-30T08:34:24;5.80;;;1.33;;
3523;SDS011;1776;53.330;11.498;2022-08-30T08:36:50;1.17;;;1.07;;
3523;SDS011;1776;53.330;11.498;2022-08-30T08:39:16;2.67;;;0.93;;
3523;SDS011;1776;53.330;11.498;2022-08-30T08:41:49;4.60;;;2.63;;
3523;SDS011;1776;53.330;11.498;2022-08-30T08:44:38;10.20;;;3.70;;
3523;SDS011;1776;53.330;11.498;2022-08-30T08:47:15;3.20;;;1.23;;
3523;SDS011;1776;53.330;11.498;2022-08-30T08:49:49;1.90;;;1.70;;
3523;SDS011;1776;53.330;11.498;2022-08-30T08:52:22;2.03;;;1.07;;
3523;SDS011;1776;53.330;11.498;2022-08-30T08:55:12;2.13;;;1.13;;
3523;SDS011;1776;53.330;11.498;2022-08-30T08:57:40;1.83;;;0.90;;
3523;SDS011;1776;53.330;11.498;2022-08-30T09:00:08;8.53;;;1.37;;
3523;SDS011;1776;53.330;11.498;2022-08-30T09:02:40;4.20;;;1.40;;
3523;SDS011;1776;53.330;11.498;2022-08-30T09:05:08;2.00;;;1.27;;
3523;SDS011;1776;53.330;11.498;2022-08-30T09:07:42;3.10;;;1.03;;
3523;SDS011;1776;53.330;11.498;2022-08-30T09:10:13;2.13;;;1.60;;
3523;SDS011;1776;53.330;11.498;2022-08-30T09:12:39;7.83;;;3.50;;
3523;SDS011;1776;53.330;11.498;2022-08-30T09:15:15;6.30;;;2.47;;
3523;SDS011;1776;53.330;11.498;2022-08-30T09:18:39;3.77;;;1.43;;
3523;SDS011;1776;53.330;11.498;2022-08-30T09:20:40;1.10;;;1.00;;
3523;SDS011;1776;53.330;11.498;2022-08-30T09:23:18;1.90;;;1.13;;
3523;SDS011;1776;53.330;11.498;2022-08-30T09:26:02;5.10;;;1.40;;
3523;SDS011;1776;53.330;11.498;2022-08-30T09:28:42;1.00;;;0.90;;
3523;SDS011;1776;53.330;11.498;2022-08-30T09:31:23;1.87;;;1.20;;
3523;SDS011;1776;53.330;11.498;2022-08-30T09:34:16;2.00;;;1.10;;
3523;SDS011;1776;53.330;11.498;2022-08-30T09:36:47;1.13;;;1.03;;
3523;SDS011;1776;53.330;11.498;2022-08-30T09:41:43;1.30;;;0.90;;
3523;SDS011;1776;53.330;11.498;2022-08-30T09:44:16;1.90;;;0.90;;
3523;SDS011;1776;53.330;11.498;2022-08-30T09:52:02;1.70;;;0.83;;
3523;SDS011;1776;53.330;11.498;2022-08-30T09:54:43;3.00;;;1.03;;
3523;SDS011;1776;53.330;11.498;2022-08-30T10:00:01;3.17;;;1.10;;
3523;SDS011;1776;53.330;11.498;2022-08-30T10:10:53;1.80;;;1.33;;
3523;SDS011;1776;53.330;11.498;2022-08-30T10:19:30;1.00;;;0.90;;
3523;SDS011;1776;53.330;11.498;2022-08-30T10:22:10;6.07;;;1.60;;
3523;SDS011;1776;53.330;11.498;2022-08-30T10:24:38;3.20;;;1.40;;
3523;SDS011;1776;53.330;11.498;2022-08-30T10:27:10;2.03;;;1.10;;
3523;SDS011;1776;53.330;11.498;2022-08-30T10:29:48;1.80;;;1.20;;
3523;SDS011;1776;53.330;11.498;2022-08-30T10:35:13;4.20;;;1.10;;
3523;SDS011;1776;53.330;11.498;2022-08-30T10:37:55;2.33;;;2.17;;
3523;SDS011;1776;53.330;11.498;2022-08-30T10:43:19;1.67;;;1.20;;
3523;SDS011;1776;53.330;11.498;2022-08-30T10:45:50;2.50;;;1.00;;
3523;SDS011;1776;53.330;11.498;2022-08-30T10:48:24;4.90;;;1.23;;
3523;SDS011;1776;53.330;11.498;2022-08-30T10:50:53;1.10;;;1.00;;
3523;SDS011;1776;53.330;11.498;2022-08-30T10:53:35;1.50;;;1.00;;
3523;SDS011;1776;53.330;11.498;2022-08-30T10:56:11;3.70;;;1.13;;
3523;SDS011;1776;53.330;11.498;2022-08-30T10:58:42;2.00;;;1.40;;
3523;SDS011;1776;53.330;11.498;2022-08-30T11:01:18;1.00;;;0.90;;
3523;SDS011;1776;53.330;11.498;2022-08-30T11:04:00;1.57;;;1.30;;
3523;SDS011;1776;53.330;11.498;2022-08-30T11:09:47;9.17;;;5.03;;
3523;SDS011;1776;53.330;11.498;2022-08-30T11:12:30;1.47;;;1.37;;
3523;SDS011;1776;53.330;11.498;2022-08-30T11:15:16;1.83;;;1.53;;
3523;SDS011;1776;53.330;11.498;2022-08-30T11:26:08;1.07;;;0.97;;
3523;SDS011;1776;53.330;11.498;2022-08-30T11:33:47;1.67;;;1.07;;
3523;SDS011;1776;53.330;11.498;2022-08-30T11:39:41;2.50;;;0.90;;
3523;SDS011;1776;53.330;11.498;2022-08-30T11:42:10;1.30;;;1.20;;
3523;SDS011;1776;53.330;11.498;2022-08-30T11:44:47;1.60;;;1.23;;
3523;SDS011;1776;53.330;11.498;2022-08-30T11:50:06;1.50;;;1.20;;
3523;SDS011;1776;53.330;11.498;2022-08-30T11:52:48;1.83;;;1.10;;
3523;SDS011;1776;53.330;11.498;2022-08-30T11:55:26;3.83;;;1.37;;
3523;SDS011;1776;53.330;11.498;2022-08-30T12:00:41;4.87;;;1.53;;
3523;SDS011;1776;53.330;11.498;2022-08-30T12:05:48;1.70;;;1.20;;
3523;SDS011;1776;53.330;11.498;2022-08-30T12:10:56;1.93;;;0.90;;
3523;SDS011;1776;53.330;11.498;2022-08-30T12:18:36;1.50;;;1.30;;
3523;SDS011;1776;53.330;11.498;2022-08-30T12:26:36;7.00;;;1.60;;
3523;SDS011;1776;53.330;11.498;2022-08-30T12:31:38;1.17;;;1.07;;
3523;SDS011;1776;53.330;11.498;2022-08-30T12:34:29;1.30;;;1.10;;
3523;SDS011;1776;53.330;11.498;2022-08-30T12:37:03;3.37;;;1.60;;
3523;SDS011;1776;53.330;11.498;2022-08-30T12:39:41;1.63;;;1.00;;
3523;SDS011;1776;53.330;11.498;2022-08-30T12:42:12;1.23;;;0.93;;
3523;SDS011;1776;53.330;11.498;2022-08-30T12:44:43;1.83;;;1.13;;
3523;SDS011;1776;53.330;11.498;2022-08-30T12:47:11;2.07;;;1.20;;
3523;SDS011;1776;53.330;11.498;2022-08-30T12:49:38;4.93;;;1.13;;
3523;SDS011;1776;53.330;11.498;2022-08-30T12:52:15;5.07;;;1.23;;
3523;SDS011;1776;53.330;11.498;2022-08-30T12:54:55;3.17;;;1.10;;
3523;SDS011;1776;53.330;11.498;2022-08-30T13:00:29;2.70;;;1.40;;
3523;SDS011;1776;53.330;11.498;2022-08-30T13:02:58;5.20;;;1.50;;
3523;SDS011;1776;53.330;11.498;2022-08-30T13:05:44;1.30;;;0.97;;
3523;SDS011;1776;53.330;11.498;2022-08-30T13:08:19;3.90;;;1.67;;
3523;SDS011;1776;53.330;11.498;2022-08-30T13:10:55;1.30;;;1.10;;
3523;SDS011;1776;53.330;11.498;2022-08-30T13:13:28;1.80;;;1.20;;
3523;SDS011;1776;53.330;11.498;2022-08-30T13:15:55;4.10;;;1.40;;
3523;SDS011;1776;53.330;11.498;2022-08-30T13:18:25;1.10;;;1.00;;
3523;SDS011;1776;53.330;11.498;2022-08-30T13:21:07;1.60;;;1.07;;
3523;SDS011;1776;53.330;11.498;2022-08-30T13:23:43;1.63;;;0.90;;
3523;SDS011;1776;53.330;11.498;2022-08-30T13:26:08;2.10;;;1.30;;
3523;SDS011;1776;53.330;11.498;2022-08-30T13:31:17;1.30;;;1.00;;
3523;SDS011;1776;53.330;11.498;2022-08-30T13:33:43;2.47;;;1.50;;
3523;SDS011;1776;53.330;11.498;2022-08-30T13:36:16;4.43;;;1.30;;
3523;SDS011;1776;53.330;11.498;2022-08-30T13:38:41;2.53;;;1.10;;
3523;SDS011;1776;53.330;11.498;2022-08-30T13:41:07;1.60;;;1.13;;
3523;SDS011;1776;53.330;11.498;2022-08-30T13:43:32;1.33;;;0.97;;
3523;SDS011;1776;53.330;11.498;2022-08-30T13:45:57;3.67;;;1.30;;
3523;SDS011;1776;53.330;11.498;2022-08-30T13:48:23;2.77;;;1.57;;
3523;SDS011;1776;53.330;11.498;2022-08-30T13:50:49;6.23;;;1.33;;
3523;SDS011;1776;53.330;11.498;2022-08-30T13:53:15;2.27;;;1.50;;
3523;SDS011;1776;53.330;11.498;2022-08-30T13:55:40;1.13;;;1.00;;
3523;SDS011;1776;53.330;11.498;2022-08-30T13:58:07;1.20;;;1.10;;
3523;SDS011;1776;53.330;11.498;2022-08-30T14:00:32;3.77;;;1.27;;
3523;SDS011;1776;53.330;11.498;2022-08-30T14:02:59;1.20;;;1.10;;
3523;SDS011;1776;53.330;11.498;2022-08-30T14:05:26;1.50;;;1.40;;
3523;SDS011;1776;53.330;11.498;2022-08-30T14:07:54;3.20;;;1.20;;
3523;SDS011;1776;53.330;11.498;2022-08-30T14:10:20;1.83;;;1.00;;
3523;SDS011;1776;53.330;11.498;2022-08-30T14:12:49;2.93;;;1.30;;
3523;SDS011;1776;53.330;11.498;2022-08-30T14:15:15;1.90;;;1.43;;
3523;SDS011;1776;53.330;11.498;2022-08-30T14:17:40;1.60;;;1.03;;
3523;SDS011;1776;53.330;11.498;2022-08-30T14:20:05;3.73;;;1.20;;
3523;SDS011;1776;53.330;11.498;2022-08-30T14:22:31;2.80;;;1.23;;
3523;SDS011;1776;53.330;11.498;2022-08-30T14:24:57;2.00;;;1.30;;
3523;SDS011;1776;53.330;11.498;2022-08-30T14:27:26;1.27;;;0.93;;
3523;SDS011;1776;53.330;11.498;2022-08-30T14:29:52;2.90;;;1.10;;
3523;SDS011;1776;53.330;11.498;2022-08-30T14:32:18;1.80;;;1.30;;
3523;SDS011;1776;53.330;11.498;2022-08-30T14:34:43;1.57;;;1.00;;
3523;SDS011;1776;53.330;11.498;2022-08-30T14:37:09;3.43;;;1.33;;
3523;SDS011;1776;53.330;11.498;2022-08-30T14:39:34;2.33;;;1.00;;
3523;SDS011;1776;53.330;11.498;2022-08-30T14:42:00;1.73;;;1.10;;
3523;SDS011;1776;53.330;11.498;2022-08-30T14:44:26;1.10;;;1.00;;
3523;SDS011;1776;53.330;11.498;2022-08-30T14:46:52;2.20;;;1.20;;
3523;SDS011;1776;53.330;11.498;2022-08-30T14:49:17;1.50;;;1.10;;
3523;SDS011;1776;53.330;11.498;2022-08-30T14:51:44;1.20;;;1.10;;
3523;SDS011;1776;53.330;11.498;2022-08-30T14:54:11;1.20;;;1.10;;
3523;SDS011;1776;53.330;11.498;2022-08-30T14:56:37;3.30;;;1.37;;
3523;SDS011;1776;53.330;11.498;2022-08-30T14:59:04;1.20;;;1.10;;
3523;SDS011;1776;53.330;11.498;2022-08-30T15:01:30;0.93;;;0.87;;
3523;SDS011;1776;53.330;11.498;2022-08-30T15:03:56;1.30;;;1.00;;
3523;SDS011;1776;53.330;11.498;2022-08-30T15:06:21;2.40;;;1.17;;
3523;SDS011;1776;53.330;11.498;2022-08-30T15:08:47;1.43;;;1.17;;
3523;SDS011;1776;53.330;11.498;2022-08-30T15:11:14;1.20;;;1.00;;
3523;SDS011;1776;53.330;11.498;2022-08-30T15:13:41;2.90;;;1.20;;
3523;SDS011;1776;53.330;11.498;2022-08-30T15:16:30;1.20;;;1.10;;
3523;SDS011;1776;53.330;11.498;2022-08-30T15:18:56;1.97;;;0.90;;
3523;SDS011;1776;53.330;11.498;2022-08-30T15:21:33;1.37;;;1.17;;
3523;SDS011;1776;53.330;11.498;2022-08-30T15:24:00;2.17;;;0.80;;
3523;SDS011;1776;53.330;11.498;2022-08-30T15:26:27;0.90;;;0.80;;
3523;SDS011;1776;53.330;11.498;2022-08-30T15:28:53;3.93;;;1.67;;
3523;SDS011;1776;53.330;11.498;2022-08-30T15:31:19;4.17;;;1.03;;
3523;SDS011;1776;53.330;11.498;2022-08-30T15:33:46;1.27;;;1.17;;
3523;SDS011;1776;53.330;11.498;2022-08-30T15:36:12;3.20;;;0.93;;
3523;SDS011;1776;53.330;11.498;2022-08-30T15:38:37;1.40;;;1.30;;
3523;SDS011;1776;53.330;11.498;2022-08-30T15:41:04;1.83;;;1.10;;
3523;SDS011;1776;53.330;11.498;2022-08-30T15:43:31;1.47;;;0.93;;
3523;SDS011;1776;53.330;11.498;2022-08-30T15:45:58;2.20;;;1.27;;
3523;SDS011;1776;53.330;11.498;2022-08-30T15:48:38;2.50;;;1.00;;
3523;SDS011;1776;53.330;11.498;2022-08-30T15:51:04;1.37;;;0.90;;
3523;SDS011;1776;53.330;11.498;2022-08-30T15:53:31;2.60;;;1.20;;
3523;SDS011;1776;53.330;11.498;2022-08-30T15:55:58;3.00;;;1.20;;
3523;SDS011;1776;53.330;11.498;2022-08-30T15:58:23;2.30;;;0.97;;
3523;SDS011;1776;53.330;11.498;2022-08-30T16:00:48;1.70;;;1.00;;
3523;SDS011;1776;53.330;11.498;2022-08-30T16:03:14;1.80;;;0.93;;
3523;SDS011;1776;53.330;11.498;2022-08-30T16:05:39;1.57;;;1.13;;
3523;SDS011;1776;53.330;11.498;2022-08-30T16:08:05;1.10;;;1.00;;
3523;SDS011;1776;53.330;11.498;2022-08-30T16:10:30;1.70;;;1.10;;
3523;SDS011;1776;53.330;11.498;2022-08-30T16:12:56;3.10;;;1.00;;
3523;SDS011;1776;53.330;11.498;2022-08-30T16:15:24;3.77;;;0.90;;
3523;SDS011;1776;53.330;11.498;2022-08-30T16:17:49;2.30;;;1.00;;
3523;SDS011;1776;53.330;11.498;2022-08-30T16:20:14;1.40;;;0.80;;
3523;SDS011;1776;53.330;11.498;2022-08-30T16:22:40;2.70;;;1.00;;
3523;SDS011;1776;53.330;11.498;2022-08-30T16:25:05;0.90;;;0.90;;
3523;SDS011;1776;53.330;11.498;2022-08-30T16:27:31;1.53;;;1.00;;